Time;durP1;ratioP1;P1;durP2;ratioP2;P2;SDS_P1;SDS_P2;PMS_P1;PMS_P2;Temp;Humidity;BMP_temperature;BMP_pressure;BME280_temperature;BME280_humidity;BME280_pressure;Samples;Min_cycle;Max_cycle;Signal;HPM_P1;HPM_P2
2020/12/10 05:01:33;;;;;;;73.65;28.23;;;3.50;99.90;;;;;;5457130;23;20303;-71
2020/12/10 05:04:00;;;;;;;67.47;25.30;;;3.50;99.90;;;;;;4972194;28;20201;-70
2020/12/10 05:06:26;;;;;;;72.35;27.45;;;3.50;99.90;;;;;;4972517;28;20220;-70
2020/12/10 05:08:52;;;;;;;62.40;25.20;;;3.50;99.90;;;;;;4972748;28;20576;-70
2020/12/10 05:11:33;;;;;;;60.90;28.08;;;3.40;99.90;;;;;;4972346;28;20228;-68
2020/12/10 05:13:59;;;;;;;65.95;24.42;;;3.40;99.90;;;;;;4973341;28;20295;-68
2020/12/10 05:16:25;;;;;;;59.72;25.83;;;3.40;99.90;;;;;;4972913;28;20584;-69
2020/12/10 05:18:52;;;;;;;65.70;25.38;;;3.40;99.90;;;;;;4972289;28;20559;-68
2020/12/10 05:21:18;;;;;;;59.47;26.33;;;3.40;99.90;;;;;;4970795;28;20231;-69
2020/12/10 05:23:45;;;;;;;48.20;22.73;;;3.40;99.90;;;;;;4976950;28;20602;-69
2020/12/10 05:26:11;;;;;;;61.05;23.83;;;3.40;99.90;;;;;;4976657;28;20275;-69
2020/12/10 05:28:45;;;;;;;53.30;23.40;;;3.30;99.90;;;;;;4976087;28;20684;-69
2020/12/10 05:31:12;;;;;;;63.55;23.52;;;3.30;99.90;;;;;;4974985;28;20228;-68
2020/12/10 05:33:53;;;;;;;51.70;22.23;;;3.40;99.90;;;;;;4976107;28;20564;-68
2020/12/10 05:36:20;;;;;;;57.50;27.55;;;3.40;99.90;;;;;;4975828;28;20215;-68
2020/12/10 05:38:54;;;;;;;64.35;26.27;;;3.40;99.90;;;;;;4975701;28;20689;-69
2020/12/10 05:41:22;;;;;;;55.08;24.42;;;3.30;99.90;;;;;;4975980;28;20224;-69
2020/12/10 05:43:49;;;;;;;63.10;26.40;;;3.40;99.90;;;;;;4975619;28;20232;-69
2020/12/10 05:46:17;;;;;;;63.55;25.98;;;3.40;99.90;;;;;;4975021;28;20528;-68
2020/12/10 05:48:45;;;;;;;65.82;28.00;;;3.40;99.90;;;;;;4975468;28;20587;-69
2020/12/10 05:51:16;;;;;;;68.35;27.75;;;3.40;99.90;;;;;;4975091;28;20224;-69
2020/12/10 05:53:42;;;;;;;63.97;26.38;;;3.40;99.90;;;;;;4975604;28;20208;-69
2020/12/10 05:56:11;;;;;;;74.53;30.38;;;3.40;99.90;;;;;;4975499;28;20205;-68
2020/12/10 05:58:47;;;;;;;72.15;27.05;;;3.40;99.90;;;;;;4975609;28;20284;-69
2020/12/10 06:01:24;;;;;;;63.60;27.58;;;3.40;99.90;;;;;;4974565;28;20231;-68
2020/12/10 06:03:51;;;;;;;70.28;27.63;;;3.40;99.90;;;;;;4975378;28;20248;-68
2020/12/10 06:06:20;;;;;;;63.63;25.83;;;3.40;99.90;;;;;;4974684;28;20249;-68
2020/12/10 06:08:48;;;;;;;70.47;26.88;;;3.40;99.90;;;;;;4975683;28;20213;-69
2020/12/10 06:11:18;;;;;;;57.88;25.83;;;3.40;99.90;;;;;;4974428;28;20784;-69
2020/12/10 06:13:44;;;;;;;74.18;28.42;;;3.30;99.90;;;;;;4975516;28;20578;-69
2020/12/10 06:16:16;;;;;;;65.07;28.00;;;3.30;99.90;;;;;;4975240;28;20205;-69
2020/12/10 06:18:54;;;;;;;62.47;25.45;;;3.40;99.90;;;;;;4975761;28;20204;-69
2020/12/10 06:21:39;;;;;;;81.18;26.05;;;3.40;99.90;;;;;;4973787;28;20251;-69
2020/12/10 06:24:36;;;;;;;80.75;31.40;;;3.30;99.90;;;;;;4975331;28;20705;-69
2020/12/10 06:27:30;;;;;;;71.30;27.02;;;3.30;99.90;;;;;;4974687;28;20205;-69
2020/12/10 06:30:17;;;;;;;83.95;30.85;;;3.30;99.90;;;;;;4965296;28;20216;-69
2020/12/10 06:32:48;;;;;;;88.90;30.15;;;3.30;99.90;;;;;;4974242;28;20263;-69
2020/12/10 06:35:29;;;;;;;88.63;30.48;;;3.30;99.90;;;;;;4974462;28;20719;-69
2020/12/10 06:37:56;;;;;;;85.82;30.30;;;3.30;99.90;;;;;;4967285;28;20574;-69
2020/12/10 06:40:31;;;;;;;78.43;30.35;;;3.30;99.90;;;;;;4974610;28;20197;-69
2020/12/10 06:42:58;;;;;;;75.75;26.95;;;3.30;99.90;;;;;;4974739;28;20228;-68
2020/12/10 06:45:31;;;;;;;86.57;31.20;;;3.30;99.90;;;;;;4970308;28;20267;-69
2020/12/10 06:47:58;;;;;;;85.78;31.17;;;3.30;99.90;;;;;;4972935;28;20295;-68
2020/12/10 06:50:26;;;;;;;87.38;31.35;;;3.30;99.90;;;;;;4973642;28;20637;-69
2020/12/10 06:53:20;;;;;;;78.40;28.65;;;3.30;99.90;;;;;;4973096;28;20207;-69
2020/12/10 06:56:03;;;;;;;83.55;31.50;;;3.30;99.90;;;;;;4960518;28;20220;-69
2020/12/10 06:59:02;;;;;;;86.75;29.50;;;3.30;99.90;;;;;;4972654;28;20240;-68
2020/12/10 07:01:34;;;;;;;79.95;30.05;;;3.30;99.90;;;;;;4969420;28;20978;-69
2020/12/10 07:04:18;;;;;;;87.30;31.85;;;3.30;99.90;;;;;;4974323;28;20210;-69
2020/12/10 07:06:44;;;;;;;78.63;25.58;;;3.30;99.90;;;;;;4973603;28;20204;-69
2020/12/10 07:09:14;;;;;;;97.05;35.22;;;3.30;99.90;;;;;;4974118;28;20204;-69
2020/12/10 07:11:42;;;;;;;97.22;32.63;;;3.20;99.90;;;;;;4972283;28;20233;-69
2020/12/10 07:14:23;;;;;;;91.28;31.30;;;3.20;99.90;;;;;;4974682;28;20205;-69
2020/12/10 07:16:49;;;;;;;64.05;24.88;;;3.20;99.90;;;;;;4973460;28;20205;-68
2020/12/10 07:19:15;;;;;;;103.15;31.15;;;3.20;99.90;;;;;;4973914;28;20673;-69
2020/12/10 07:21:41;;;;;;;90.57;33.03;;;3.20;99.90;;;;;;4972462;28;20232;-69
2020/12/10 07:24:07;;;;;;;80.43;32.05;;;3.20;99.90;;;;;;4974692;28;20260;-69
2020/12/10 07:26:35;;;;;;;83.63;32.38;;;3.10;99.90;;;;;;4973963;28;20205;-69
2020/12/10 07:29:01;;;;;;;82.93;30.48;;;3.10;99.90;;;;;;4974444;28;20639;-68
2020/12/10 07:31:27;;;;;;;95.28;30.38;;;3.10;99.90;;;;;;4972699;28;20283;-68
2020/12/10 07:33:55;;;;;;;80.80;28.08;;;3.10;99.90;;;;;;4973659;28;20204;-69
2020/12/10 07:36:21;;;;;;;82.10;30.50;;;3.10;99.90;;;;;;4965303;28;20208;-69
2020/12/10 07:38:48;;;;;;;85.28;30.35;;;3.10;99.90;;;;;;4973325;28;20215;-69
2020/12/10 07:41:14;;;;;;;93.88;31.95;;;3.10;99.90;;;;;;4971574;28;20692;-69
2020/12/10 07:43:48;;;;;;;86.95;32.40;;;3.20;99.90;;;;;;4972214;28;20235;-69
2020/12/10 07:46:15;;;;;;;58.47;25.40;;;3.20;99.90;;;;;;4971441;28;20275;-69
2020/12/10 07:48:41;;;;;;;74.90;29.02;;;3.20;99.90;;;;;;4973045;28;20308;-69
2020/12/10 07:51:08;;;;;;;73.40;27.77;;;3.20;99.90;;;;;;4973276;28;20228;-68
2020/12/10 07:53:34;;;;;;;60.78;27.50;;;3.20;99.90;;;;;;4972374;28;20304;-68
2020/12/10 07:56:03;;;;;;;57.80;25.15;;;3.20;99.90;;;;;;4973234;28;20208;-69
2020/12/10 07:58:35;;;;;;;64.05;25.33;;;3.20;99.90;;;;;;4973141;28;20211;-69
2020/12/10 08:01:04;;;;;;;68.65;26.00;;;3.20;99.90;;;;;;4970987;28;20232;-69
2020/12/10 08:03:48;;;;;;;57.65;25.85;;;3.20;99.90;;;;;;4971996;28;20220;-69
2020/12/10 08:06:15;;;;;;;61.97;25.55;;;3.20;99.90;;;;;;4972948;28;20271;-69
2020/12/10 08:08:46;;;;;;;53.33;23.40;;;3.20;99.90;;;;;;4973353;28;20201;-69
2020/12/10 08:11:16;;;;;;;66.97;26.17;;;3.20;99.90;;;;;;4973046;28;20307;-69
2020/12/10 08:13:59;;;;;;;55.95;25.02;;;3.20;99.90;;;;;;4972343;28;20574;-69
2020/12/10 08:16:37;;;;;;;53.78;24.45;;;3.20;99.90;;;;;;4968917;28;20208;-69
2020/12/10 08:19:16;;;;;;;68.57;27.05;;;3.20;99.90;;;;;;4967937;28;20232;-69
2020/12/10 08:21:43;;;;;;;63.92;26.38;;;3.20;99.90;;;;;;4970383;28;20315;-69
2020/12/10 08:24:09;;;;;;;50.53;25.52;;;3.20;99.90;;;;;;4972869;28;20214;-69
2020/12/10 08:26:35;;;;;;;60.53;24.48;;;3.20;99.90;;;;;;4971684;28;20217;-69
2020/12/10 08:29:02;;;;;;;52.13;20.90;;;3.20;99.90;;;;;;4972709;28;20251;-69
2020/12/10 08:31:30;;;;;;;54.03;20.70;;;3.10;99.90;;;;;;4972371;28;20232;-69
2020/12/10 08:33:57;;;;;;;72.53;28.13;;;3.10;99.90;;;;;;4971758;28;20625;-69
2020/12/10 08:36:29;;;;;;;68.85;28.55;;;3.20;99.90;;;;;;4971018;28;20357;-69
2020/12/10 08:38:57;;;;;;;57.38;26.88;;;3.20;99.90;;;;;;4972135;28;20217;-69
2020/12/10 08:41:27;;;;;;;70.82;29.13;;;3.20;99.90;;;;;;4972200;28;20245;-68
2020/12/10 08:43:54;;;;;;;62.78;27.40;;;3.20;99.90;;;;;;4971926;28;20551;-69
2020/12/10 08:46:21;;;;;;;84.75;31.23;;;3.10;99.90;;;;;;4973306;28;20243;-69
2020/12/10 08:48:47;;;;;;;87.07;31.80;;;3.10;99.90;;;;;;4972110;28;20251;-69
2020/12/10 08:51:14;;;;;;;72.15;27.67;;;3.10;99.90;;;;;;4972707;28;20236;-69
2020/12/10 08:53:48;;;;;;;73.85;29.63;;;3.10;99.90;;;;;;4967716;28;20205;-69
2020/12/10 08:56:23;;;;;;;72.70;28.00;;;3.10;99.90;;;;;;4965861;28;20217;-69
2020/12/10 08:58:50;;;;;;;62.97;30.33;;;3.10;99.90;;;;;;4976518;28;20215;-69
2020/12/10 09:01:16;;;;;;;73.13;29.17;;;3.20;99.90;;;;;;4975714;28;20236;-69
2020/12/10 09:03:42;;;;;;;63.33;27.77;;;3.10;99.90;;;;;;4974542;28;20244;-69
2020/12/10 09:06:09;;;;;;;56.72;25.05;;;3.20;99.90;;;;;;4976336;28;20617;-69
2020/12/10 09:08:36;;;;;;;58.65;27.38;;;3.20;99.90;;;;;;4976057;28;20205;-69
2020/12/10 09:11:02;;;;;;;64.47;27.42;;;3.20;99.90;;;;;;4976182;28;20287;-70
2020/12/10 09:13:28;;;;;;;62.92;25.65;;;3.30;99.90;;;;;;4975044;28;20205;-70
2020/12/10 09:15:54;;;;;;;71.00;28.92;;;3.40;99.90;;;;;;4977011;28;20236;-69
2020/12/10 09:18:21;;;;;;;68.07;27.30;;;3.40;99.90;;;;;;4975699;28;20205;-70
2020/12/10 09:20:47;;;;;;;66.15;26.98;;;3.40;99.90;;;;;;4976666;28;20273;-70
2020/12/10 09:23:13;;;;;;;65.95;28.83;;;3.40;99.90;;;;;;4975134;28;20265;-71
2020/12/10 09:25:40;;;;;;;63.67;28.73;;;3.40;99.90;;;;;;4977167;28;20373;-70
2020/12/10 09:28:09;;;;;;;76.63;30.35;;;3.40;99.90;;;;;;4976734;28;20255;-70
2020/12/10 09:30:35;;;;;;;72.43;29.85;;;3.40;99.90;;;;;;4979068;28;20263;-70
2020/12/10 09:33:01;;;;;;;76.13;31.10;;;3.40;99.90;;;;;;4974790;28;20267;-68
2020/12/10 09:35:27;;;;;;;70.45;29.92;;;3.40;99.90;;;;;;4975963;28;20208;-70
2020/12/10 09:37:53;;;;;;;63.50;26.77;;;3.30;99.90;;;;;;4975429;28;20208;-71
2020/12/10 09:40:20;;;;;;;75.50;26.90;;;3.40;99.90;;;;;;4976324;28;20208;-70
2020/12/10 09:42:48;;;;;;;65.85;28.75;;;3.30;99.90;;;;;;4974883;28;20233;-70
2020/12/10 09:45:14;;;;;;;63.90;28.83;;;3.30;99.90;;;;;;4975796;28;20611;-70
2020/12/10 09:47:41;;;;;;;71.93;28.98;;;3.30;99.90;;;;;;4975173;28;20208;-70
2020/12/10 09:50:17;;;;;;;66.00;29.42;;;3.40;99.90;;;;;;4976186;28;20357;-70
2020/12/10 09:52:49;;;;;;;65.70;28.60;;;3.30;99.90;;;;;;4974551;28;20695;-70
2020/12/10 09:55:27;;;;;;;68.57;29.27;;;3.30;99.90;;;;;;4976347;28;20378;-69
2020/12/10 09:57:54;;;;;;;57.95;24.10;;;3.30;99.90;;;;;;4975556;28;20201;-70
2020/12/10 10:00:20;;;;;;;60.28;27.75;;;3.30;99.90;;;;;;4976229;28;20201;-70
2020/12/10 10:02:46;;;;;;;61.92;28.10;;;3.30;99.90;;;;;;4974243;28;20323;-71
2020/12/10 10:05:13;;;;;;;70.57;27.00;;;3.30;99.90;;;;;;4976378;28;20208;-70
2020/12/10 10:07:40;;;;;;;71.50;28.33;;;3.30;99.90;;;;;;4975160;28;20267;-69
2020/12/10 10:10:06;;;;;;;85.22;35.03;;;3.30;99.90;;;;;;4973482;28;20490;-70
2020/12/10 10:12:32;;;;;;;79.82;36.03;;;3.30;99.90;;;;;;4974725;28;20201;-70
2020/12/10 10:14:59;;;;;;;83.55;29.15;;;3.40;99.90;;;;;;4972194;28;20208;-70
2020/12/10 10:17:25;;;;;;;71.03;28.85;;;3.30;99.90;;;;;;4975617;28;20220;-71
2020/12/10 10:19:51;;;;;;;75.15;31.55;;;3.20;99.90;;;;;;4974734;28;20217;-70
2020/12/10 10:22:18;;;;;;;82.75;34.17;;;3.20;99.90;;;;;;4973952;28;20306;-70
2020/12/10 10:24:44;;;;;;;86.25;31.13;;;3.20;99.90;;;;;;4974959;28;20219;-70
2020/12/10 10:27:11;;;;;;;87.55;30.75;;;3.30;99.90;;;;;;4975414;28;20204;-70
2020/12/10 10:29:37;;;;;;;85.45;33.15;;;3.30;99.90;;;;;;4973963;28;20655;-70
2020/12/10 10:32:07;;;;;;;84.82;32.10;;;3.20;99.90;;;;;;4966377;28;20304;-69
2020/12/10 10:34:33;;;;;;;78.80;34.38;;;3.20;99.90;;;;;;4972468;28;20209;-68
2020/12/10 10:36:59;;;;;;;92.05;33.90;;;3.20;99.90;;;;;;4974690;28;20275;-70
2020/12/10 10:39:25;;;;;;;90.80;32.30;;;3.20;99.90;;;;;;4975073;28;20204;-70
2020/12/10 10:41:51;;;;;;;91.95;34.97;;;3.20;99.90;;;;;;4972920;28;20287;-70
2020/12/10 10:44:17;;;;;;;78.15;31.70;;;3.20;99.90;;;;;;4974611;28;20200;-70
2020/12/10 10:46:44;;;;;;;88.40;34.22;;;3.20;99.90;;;;;;4974803;28;20234;-70
2020/12/10 10:49:12;;;;;;;84.38;32.47;;;3.20;99.90;;;;;;4974037;28;20602;-69
2020/12/10 10:51:39;;;;;;;78.72;32.63;;;3.20;99.90;;;;;;4972852;28;20220;-70
2020/12/10 10:54:05;;;;;;;69.10;30.90;;;3.30;99.90;;;;;;4974712;28;20197;-70
2020/12/10 10:56:31;;;;;;;96.60;30.88;;;3.30;99.90;;;;;;4974694;28;20229;-69
2020/12/10 10:58:57;;;;;;;74.47;30.67;;;3.20;99.90;;;;;;4974481;28;20211;-70
2020/12/10 11:01:27;;;;;;;77.60;30.95;;;3.30;99.90;;;;;;4973401;28;20232;-69
2020/12/10 11:03:54;;;;;;;73.13;28.35;;;3.30;99.90;;;;;;4973513;28;20225;-70
2020/12/10 11:06:21;;;;;;;78.78;32.40;;;3.30;99.90;;;;;;4974247;28;20212;-69
2020/12/10 11:08:47;;;;;;;78.43;29.92;;;3.30;99.90;;;;;;4974366;28;20645;-70
2020/12/10 11:11:17;;;;;;;66.15;27.85;;;3.30;99.90;;;;;;4974052;28;20228;-69
2020/12/10 11:13:43;;;;;;;65.90;28.77;;;3.30;99.90;;;;;;4973718;28;20212;-70
2020/12/10 11:16:09;;;;;;;48.30;23.45;;;3.40;99.90;;;;;;4973794;28;20212;-70
2020/12/10 11:18:36;;;;;;;63.85;25.95;;;3.40;99.90;;;;;;4974552;28;20219;-69
2020/12/10 11:21:02;;;;;;;66.97;27.13;;;3.40;99.90;;;;;;4974346;28;20279;-69
2020/12/10 11:23:29;;;;;;;63.72;27.83;;;3.40;99.90;;;;;;4973002;28;20225;-69
2020/12/10 11:25:55;;;;;;;60.05;28.40;;;3.40;99.90;;;;;;4971196;28;20213;-70
2020/12/10 11:28:21;;;;;;;61.42;27.95;;;3.40;99.90;;;;;;4974208;28;20263;-70
2020/12/10 11:30:47;;;;;;;65.50;29.92;;;3.30;99.90;;;;;;4971832;28;20251;-70
2020/12/10 11:33:13;;;;;;;74.22;29.60;;;3.40;99.90;;;;;;4971964;28;20533;-70
2020/12/10 11:35:39;;;;;;;68.20;28.55;;;3.40;99.90;;;;;;4974000;28;20235;-71
2020/12/10 11:38:06;;;;;;;62.17;26.52;;;3.40;99.90;;;;;;4972417;28;20715;-70
2020/12/10 11:40:33;;;;;;;74.30;30.25;;;3.40;99.90;;;;;;4972852;28;20630;-71
2020/12/10 11:42:59;;;;;;;74.00;27.35;;;3.30;99.90;;;;;;4970933;28;20625;-70
2020/12/10 11:45:25;;;;;;;66.15;27.70;;;3.20;99.90;;;;;;4973108;28;20263;-70
2020/12/10 11:47:51;;;;;;;81.30;29.92;;;3.20;99.90;;;;;;4971345;28;20216;-70
2020/12/10 11:50:20;;;;;;;64.53;28.42;;;3.20;99.90;;;;;;4972420;28;20255;-70
2020/12/10 11:52:47;;;;;;;71.63;26.52;;;3.20;99.90;;;;;;4972410;28;20204;-70
2020/12/10 11:55:14;;;;;;;53.35;24.70;;;3.20;99.90;;;;;;4973087;28;20543;-70
2020/12/10 11:57:41;;;;;;;77.13;29.95;;;3.20;99.90;;;;;;4973304;28;20200;-70
2020/12/10 12:00:09;;;;;;;70.55;26.98;;;3.20;99.90;;;;;;4972413;28;20204;-70
2020/12/10 12:02:35;;;;;;;70.20;25.00;;;3.10;99.90;;;;;;4972110;28;20650;-70
2020/12/10 12:05:02;;;;;;;60.70;26.67;;;3.10;99.90;;;;;;4973093;28;20267;-69
2020/12/10 12:07:29;;;;;;;71.53;27.42;;;3.10;99.90;;;;;;4954821;28;20217;-69
2020/12/10 12:09:55;;;;;;;61.40;27.23;;;3.10;99.90;;;;;;4972383;28;20202;-70
2020/12/10 12:12:21;;;;;;;74.68;26.60;;;3.10;99.90;;;;;;4972214;28;20223;-70
2020/12/10 12:14:48;;;;;;;74.18;28.60;;;3.10;99.90;;;;;;4973163;28;20216;-69
2020/12/10 12:17:14;;;;;;;63.67;26.33;;;3.10;99.90;;;;;;4971434;28;20205;-70
2020/12/10 12:19:40;;;;;;;61.22;24.27;;;3.10;99.90;;;;;;4972226;28;20236;-70
2020/12/10 12:22:06;;;;;;;58.13;25.15;;;3.10;99.90;;;;;;4971819;28;20240;-70
2020/12/10 12:24:32;;;;;;;62.70;26.45;;;3.10;99.90;;;;;;4972895;28;20201;-70
2020/12/10 12:26:58;;;;;;;74.93;30.20;;;3.10;99.90;;;;;;4972656;28;20200;-70
2020/12/10 12:29:24;;;;;;;62.67;27.40;;;3.10;99.90;;;;;;4971903;28;20269;-70
2020/12/10 12:31:51;;;;;;;67.32;28.45;;;3.10;99.90;;;;;;4971298;28;20228;-70
2020/12/10 12:34:18;;;;;;;67.03;28.58;;;3.10;99.90;;;;;;4972988;28;20255;-70
2020/12/10 12:36:45;;;;;;;66.70;27.05;;;3.10;99.90;;;;;;4971681;28;20205;-70
2020/12/10 12:39:13;;;;;;;62.35;25.17;;;3.10;99.90;;;;;;4972264;28;20212;-70
2020/12/10 12:41:39;;;;;;;63.95;27.33;;;3.20;99.90;;;;;;4971665;28;20236;-70
2020/12/10 12:44:06;;;;;;;64.07;27.20;;;3.20;99.90;;;;;;4973201;28;20771;-69
2020/12/10 12:46:32;;;;;;;65.55;24.50;;;3.20;99.90;;;;;;4971729;28;20204;-70
2020/12/10 12:48:59;;;;;;;61.25;25.85;;;3.20;99.90;;;;;;4971702;28;20299;-69
2020/12/10 12:51:25;;;;;;;62.03;25.67;;;3.20;99.90;;;;;;4971851;28;20302;-69
2020/12/10 12:53:52;;;;;;;67.57;26.98;;;3.20;99.90;;;;;;4972243;28;20577;-69
2020/12/10 12:56:20;;;;;;;72.65;26.92;;;3.20;99.90;;;;;;4965412;28;20208;-69
2020/12/10 12:58:48;;;;;;;77.95;28.63;;;3.20;99.90;;;;;;4971229;28;20200;-69
2020/12/10 13:01:15;;;;;;;66.30;28.27;;;3.10;99.90;;;;;;4971282;28;20593;-69
2020/12/10 13:03:41;;;;;;;75.22;29.50;;;3.10;99.90;;;;;;4972251;28;20225;-69
2020/12/10 13:06:12;;;;;;;64.97;24.13;;;3.10;99.90;;;;;;4971831;28;20255;-68
2020/12/10 13:08:38;;;;;;;62.60;25.10;;;3.10;99.90;;;;;;4972295;28;20208;-68
2020/12/10 13:11:04;;;;;;;68.50;26.90;;;3.10;99.90;;;;;;4972236;28;20275;-69
2020/12/10 13:13:30;;;;;;;64.57;26.10;;;3.10;99.90;;;;;;4972290;28;20193;-69
2020/12/10 13:15:56;;;;;;;69.38;27.67;;;3.10;99.90;;;;;;4972308;28;20338;-68
2020/12/10 13:18:23;;;;;;;62.60;25.15;;;3.10;99.90;;;;;;4971860;28;20280;-69
2020/12/10 13:20:49;;;;;;;62.92;27.77;;;3.00;99.90;;;;;;4972433;28;20256;-69
2020/12/10 13:23:16;;;;;;;63.60;27.13;;;3.00;99.90;;;;;;4971209;28;20291;-69
2020/12/10 13:25:45;;;;;;;60.35;26.30;;;3.10;99.90;;;;;;4973026;28;20277;-68
2020/12/10 13:28:12;;;;;;;71.25;26.90;;;3.10;99.90;;;;;;4964949;28;20299;-69
2020/12/10 13:30:38;;;;;;;66.55;25.73;;;3.10;99.90;;;;;;4971750;28;20252;-69
2020/12/10 13:33:04;;;;;;;68.55;28.27;;;3.10;99.90;;;;;;4971201;28;20597;-68
2020/12/10 13:35:30;;;;;;;68.53;28.38;;;3.00;99.90;;;;;;4972683;28;20657;-69
2020/12/10 13:37:56;;;;;;;79.68;35.50;;;3.00;99.90;;;;;;4969565;28;20507;-68
2020/12/10 13:40:23;;;;;;;73.82;28.83;;;3.00;99.90;;;;;;4972026;28;20534;-68
2020/12/10 13:42:49;;;;;;;70.32;27.13;;;3.00;99.90;;;;;;4971014;28;20244;-69
2020/12/10 13:45:15;;;;;;;67.03;29.17;;;2.90;99.90;;;;;;4971687;28;20208;-69
2020/12/10 13:47:42;;;;;;;74.80;27.67;;;2.90;99.90;;;;;;4975037;28;20206;-69
2020/12/10 13:50:08;;;;;;;59.85;25.08;;;2.90;99.90;;;;;;4975493;28;20220;-68
2020/12/10 13:52:34;;;;;;;71.47;27.13;;;2.90;99.90;;;;;;4974963;28;20267;-69
2020/12/10 13:55:00;;;;;;;73.18;27.70;;;2.90;99.90;;;;;;4975395;28;20219;-68
2020/12/10 13:57:29;;;;;;;65.50;27.08;;;2.90;99.90;;;;;;4975295;28;20253;-69
2020/12/10 13:59:55;;;;;;;69.97;27.83;;;2.80;99.90;;;;;;4975172;28;20657;-68
2020/12/10 14:02:22;;;;;;;72.00;26.42;;;2.90;99.90;;;;;;4974335;28;20233;-69
2020/12/10 14:04:48;;;;;;;75.15;31.65;;;2.90;99.90;;;;;;4975446;28;20238;-69
2020/12/10 14:07:14;;;;;;;64.05;26.80;;;2.90;99.90;;;;;;4974754;28;20208;-68
2020/12/10 14:09:40;;;;;;;75.47;29.17;;;2.90;99.90;;;;;;4975340;28;20208;-69
2020/12/10 14:12:06;;;;;;;77.55;29.90;;;2.90;99.90;;;;;;4974757;28;20598;-69
2020/12/10 14:14:34;;;;;;;52.70;23.63;;;2.90;99.90;;;;;;4975505;28;20197;-68
2020/12/10 14:17:00;;;;;;;60.63;24.45;;;2.90;99.90;;;;;;4973872;28;20220;-69
2020/12/10 14:19:27;;;;;;;61.85;25.42;;;2.90;99.90;;;;;;4975268;28;20673;-69
2020/12/10 14:21:53;;;;;;;67.65;27.65;;;2.90;99.90;;;;;;4974594;28;20232;-68
2020/12/10 14:24:19;;;;;;;64.32;25.75;;;2.90;99.90;;;;;;4975591;28;20224;-68
2020/12/10 14:26:49;;;;;;;57.45;23.20;;;2.90;99.90;;;;;;4974623;28;20213;-68
2020/12/10 14:29:15;;;;;;;61.80;22.70;;;2.90;99.90;;;;;;4963937;28;20220;-67
2020/12/10 14:31:42;;;;;;;65.50;24.13;;;2.90;99.90;;;;;;4973631;28;20231;-67
2020/12/10 14:34:09;;;;;;;61.85;26.30;;;2.90;99.90;;;;;;4974921;28;20220;-68
2020/12/10 14:36:35;;;;;;;66.25;26.50;;;2.90;99.90;;;;;;4966003;28;20988;-68
2020/12/10 14:39:01;;;;;;;51.70;19.05;;;2.90;99.90;;;;;;4975068;28;20212;-68
2020/12/10 14:41:27;;;;;;;48.95;20.85;;;2.90;99.90;;;;;;4974681;28;20232;-68
2020/12/10 14:43:54;;;;;;;62.22;22.95;;;2.80;99.90;;;;;;4972712;28;20217;-69
2020/12/10 14:46:20;;;;;;;65.07;28.02;;;2.90;99.90;;;;;;4974050;28;20216;-69
2020/12/10 14:48:47;;;;;;;84.13;28.55;;;2.90;99.90;;;;;;4974750;28;20330;-69
2020/12/10 14:51:14;;;;;;;61.53;27.83;;;2.80;99.90;;;;;;4975827;28;20275;-69
2020/12/10 14:53:40;;;;;;;73.03;27.17;;;2.90;99.90;;;;;;4974376;28;20212;-69
2020/12/10 14:56:06;;;;;;;71.78;25.13;;;2.90;99.90;;;;;;4975438;28;20354;-69
2020/12/10 14:58:33;;;;;;;64.97;26.58;;;2.90;99.90;;;;;;4975635;28;20239;-69
2020/12/10 15:00:59;;;;;;;62.65;25.67;;;2.80;99.90;;;;;;4974937;28;20232;-69
2020/12/10 15:03:25;;;;;;;40.53;17.45;;;2.80;99.90;;;;;;4973754;28;20236;-69
2020/12/10 15:05:52;;;;;;;50.35;21.75;;;2.80;99.90;;;;;;4976082;28;20209;-69
2020/12/10 15:08:18;;;;;;;63.95;25.00;;;2.70;99.90;;;;;;4975426;28;20232;-69
2020/12/10 15:10:45;;;;;;;73.28;26.42;;;2.70;99.90;;;;;;4973733;28;20323;-69
2020/12/10 15:13:11;;;;;;;69.53;25.95;;;2.70;99.90;;;;;;4972589;28;20201;-69
2020/12/10 15:15:37;;;;;;;76.45;27.10;;;2.70;99.90;;;;;;4973904;28;20279;-69
2020/12/10 15:18:04;;;;;;;61.95;24.27;;;2.80;99.90;;;;;;4973142;28;20205;-69
2020/12/10 15:20:30;;;;;;;52.60;21.50;;;2.70;99.90;;;;;;4973088;28;20283;-69
2020/12/10 15:22:57;;;;;;;55.20;23.63;;;2.60;99.90;;;;;;4972609;28;20362;-69
2020/12/10 15:25:23;;;;;;;50.90;21.83;;;2.60;99.90;;;;;;4974057;28;20216;-69
2020/12/10 15:27:49;;;;;;;47.30;19.27;;;2.70;99.90;;;;;;4968513;28;20225;-69
2020/12/10 15:30:16;;;;;;;44.60;20.02;;;2.60;99.90;;;;;;4973557;28;20726;-69
2020/12/10 15:32:42;;;;;;;60.53;24.42;;;2.60;99.90;;;;;;4972207;28;20208;-69
2020/12/10 15:35:08;;;;;;;58.67;25.90;;;2.50;99.90;;;;;;4973478;28;20204;-69
2020/12/10 15:37:35;;;;;;;60.75;25.33;;;2.60;99.90;;;;;;4971096;28;20586;-69
2020/12/10 15:40:03;;;;;;;44.13;19.23;;;2.60;99.90;;;;;;4973084;28;20657;-69
2020/12/10 15:42:29;;;;;;;66.63;24.85;;;2.60;99.90;;;;;;4972098;28;20228;-69
2020/12/10 15:44:55;;;;;;;54.38;19.80;;;2.60;99.90;;;;;;4973272;28;20547;-70
2020/12/10 15:47:21;;;;;;;57.53;23.95;;;2.60;99.90;;;;;;4972735;28;20196;-69
2020/12/10 15:49:47;;;;;;;54.35;23.65;;;2.60;99.90;;;;;;4972724;28;20216;-69
2020/12/10 15:52:14;;;;;;;33.13;15.02;;;2.60;99.90;;;;;;4971915;28;20224;-69
2020/12/10 15:54:40;;;;;;;53.25;21.52;;;2.60;99.90;;;;;;4968730;28;20324;-69
2020/12/10 15:57:07;;;;;;;38.65;16.33;;;2.60;99.90;;;;;;4963332;28;20200;-70
2020/12/10 15:59:33;;;;;;;38.00;14.77;;;2.50;99.90;;;;;;4971973;28;20669;-70
2020/12/10 16:02:00;;;;;;;48.97;20.40;;;2.50;99.90;;;;;;4971479;28;20236;-69
2020/12/10 16:04:26;;;;;;;62.40;25.38;;;2.50;99.90;;;;;;4973059;28;20807;-69
2020/12/10 16:06:53;;;;;;;50.58;18.90;;;2.50;99.90;;;;;;4970897;28;20247;-69
2020/12/10 16:09:19;;;;;;;56.90;22.27;;;2.50;99.90;;;;;;4972579;28;20220;-70
2020/12/10 16:11:45;;;;;;;65.63;21.33;;;2.50;99.90;;;;;;4972321;28;20719;-70
2020/12/10 16:14:12;;;;;;;52.83;20.95;;;2.50;99.90;;;;;;4973166;28;21782;-70
2020/12/10 16:16:40;;;;;;;52.42;22.98;;;2.50;99.90;;;;;;4971816;28;20205;-70
2020/12/10 16:19:06;;;;;;;55.40;21.60;;;2.50;99.90;;;;;;4972118;28;20208;-70
2020/12/10 16:21:32;;;;;;;59.75;21.77;;;2.50;99.90;;;;;;4971913;28;20232;-70
2020/12/10 16:23:58;;;;;;;41.50;14.85;;;2.50;99.90;;;;;;4972691;28;20224;-69
2020/12/10 16:26:24;;;;;;;58.35;19.40;;;2.50;99.90;;;;;;4971816;28;20280;-69
2020/12/10 16:28:51;;;;;;;43.05;20.33;;;2.50;99.90;;;;;;4972438;28;20200;-69
2020/12/10 16:31:18;;;;;;;43.47;18.00;;;2.50;99.90;;;;;;4968021;28;20271;-70
2020/12/10 16:33:44;;;;;;;58.47;20.92;;;2.50;99.90;;;;;;4972025;28;20205;-70
2020/12/10 16:36:15;;;;;;;50.80;23.88;;;2.40;99.90;;;;;;4972396;28;20220;-70
2020/12/10 16:38:41;;;;;;;60.88;20.13;;;2.50;99.90;;;;;;4972610;28;20711;-70
2020/12/10 16:41:09;;;;;;;58.05;22.88;;;2.50;99.90;;;;;;4971943;28;20291;-70
2020/12/10 16:43:35;;;;;;;50.75;19.60;;;2.40;99.90;;;;;;4972837;28;20264;-70
2020/12/10 16:46:04;;;;;;;54.10;23.95;;;2.40;99.90;;;;;;4972575;28;20205;-70
2020/12/10 16:48:31;;;;;;;24.23;9.57;;;2.40;99.90;;;;;;4971953;28;20205;-70
2020/12/10 16:50:57;;;;;;;38.13;16.88;;;2.40;99.90;;;;;;4970106;28;20282;-70
2020/12/10 16:53:23;;;;;;;56.55;23.40;;;2.40;99.90;;;;;;4971675;28;20201;-70
2020/12/10 16:55:50;;;;;;;26.00;12.80;;;2.40;99.90;;;;;;4973213;28;20212;-70
2020/12/10 16:58:16;;;;;;;58.25;22.13;;;2.40;99.90;;;;;;4972879;28;20685;-70
2020/12/10 17:00:42;;;;;;;55.30;22.20;;;2.40;99.90;;;;;;4971921;28;20228;-70
2020/12/10 17:03:08;;;;;;;49.25;20.63;;;2.30;99.90;;;;;;4971629;28;20255;-70
2020/12/10 17:05:35;;;;;;;53.00;19.52;;;2.30;99.90;;;;;;4972524;28;20267;-70
2020/12/10 17:08:01;;;;;;;48.70;19.25;;;2.30;99.90;;;;;;4970638;28;20205;-70
2020/12/10 17:10:27;;;;;;;53.47;22.02;;;2.30;99.90;;;;;;4972471;28;20308;-70
2020/12/10 17:12:55;;;;;;;54.03;20.85;;;2.30;99.90;;;;;;4971395;28;20261;-70
2020/12/10 17:15:21;;;;;;;49.40;20.40;;;2.30;99.90;;;;;;4972085;28;20322;-69
2020/12/10 17:17:48;;;;;;;50.05;21.25;;;2.30;99.90;;;;;;4972840;28;20211;-70
2020/12/10 17:20:14;;;;;;;45.90;18.77;;;2.30;99.90;;;;;;4976256;28;20212;-70
2020/12/10 17:22:41;;;;;;;54.47;20.70;;;2.30;99.90;;;;;;4974870;28;20228;-69
2020/12/10 17:25:07;;;;;;;47.90;20.67;;;2.30;99.90;;;;;;4976061;28;20279;-70
2020/12/10 17:27:33;;;;;;;48.28;20.35;;;2.30;99.90;;;;;;4975507;28;20208;-70
2020/12/10 17:29:59;;;;;;;55.80;22.40;;;2.40;99.90;;;;;;4968176;28;20264;-70
2020/12/10 17:32:25;;;;;;;53.22;20.65;;;2.30;99.90;;;;;;4958089;28;20248;-70
2020/12/10 17:34:51;;;;;;;34.33;16.10;;;2.30;99.90;;;;;;4974866;28;20284;-71
2020/12/10 17:37:17;;;;;;;29.35;15.52;;;2.30;99.90;;;;;;4974623;28;20216;-70
2020/12/10 17:39:44;;;;;;;42.15;13.05;;;2.30;99.90;;;;;;4974958;28;20262;-70